EVRA/RIX METAR and TAF weather

Enter ICAO airport designator
Station Type Date Time Source
EVRA METAR 2021/02/28 02:20 UTC NOAA

EVRA 280220Z 23004KT 210V280 9999 BKN022 OVC025 02/00 Q1023 R36/190095 NOSIG


Station Type Date Time Source
EVRA Decoded METAR 2021/02/28 02:20 UTC NOAA

Riga International Airport, Latvia (EVRA) 56-55N 023-58E
Feb 27, 2021 - 09:20 PM EST / 2021.02.28 0220 UTC
Wind: from the SW (230 degrees) at 5 MPH (4 KT) (direction variable):0
Visibility: greater than 7 mile(s):0
Sky conditions: overcast
Temperature: 35 F (2 C)
Windchill: 30 F (-1 C):1
Dew Point: 32 F (0 C)
Relative Humidity: 86%
Pressure (altimeter): 30.21 in. Hg (1023 hPa)
ob: EVRA 280220Z 23004KT 210V280 9999 BKN022 OVC025 02/00 Q1023 R36/190095 NOSIG
cycle: 2

Station Type Date Time Source
EVRA TAF 2021/02/28 03:03 UTC NOAA

TAF TAF EVRA 280201Z 2803/0103 30007KT 9999 BKN020
TEMPO 2818/2824 3000 BR
TEMPO 0100/0103 0700 FG FZFG BKN001

Example: see airport list